createdAt,value
2019-03-20T00:00:17.407Z,4.20
2019-03-20T00:02:45.879Z,4.10
2019-03-20T00:05:14.186Z,3.83
2019-03-20T00:07:42.550Z,4.12
2019-03-20T00:10:11.797Z,4.12
2019-03-20T00:12:40.150Z,3.65
2019-03-20T00:15:11.373Z,3.83
2019-03-20T00:17:39.787Z,4.30
2019-03-20T00:20:13.885Z,4.03
2019-03-20T00:22:43.363Z,4.10
2019-03-20T00:25:12.126Z,3.40
2019-03-20T00:27:40.554Z,3.60
2019-03-20T00:30:15.253Z,3.30
2019-03-20T00:32:43.586Z,3.30
2019-03-20T00:35:11.971Z,3.60
2019-03-20T00:37:40.385Z,3.33
2019-03-20T00:40:11.552Z,3.33
2019-03-20T00:42:39.986Z,3.50
2019-03-20T00:45:15.982Z,5.17
2019-03-20T00:47:44.417Z,5.17
2019-03-20T00:50:16.448Z,6.15
2019-03-20T00:52:45.835Z,6.42
2019-03-20T00:55:15.530Z,6.25
2019-03-20T00:57:44.238Z,5.62
2019-03-20T01:00:20.684Z,6.28
2019-03-20T01:02:49.085Z,5.65
2019-03-20T01:05:36.985Z,6.08
2019-03-20T01:08:05.307Z,5.70
2019-03-20T01:10:33.661Z,5.87
2019-03-20T01:13:02.043Z,5.47
2019-03-20T01:15:30.431Z,5.95
2019-03-20T01:17:58.816Z,6.00
2019-03-20T01:20:27.263Z,5.92
2019-03-20T01:22:55.615Z,5.42
2019-03-20T01:25:23.988Z,5.70
2019-03-20T01:27:52.446Z,5.55
2019-03-20T01:30:34.897Z,5.80
2019-03-20T01:33:05.218Z,6.17
2019-03-20T01:35:33.591Z,6.25
2019-03-20T01:38:01.963Z,5.97
2019-03-20T01:40:30.425Z,5.33
2019-03-20T01:42:58.781Z,5.92
2019-03-20T01:45:27.161Z,5.95
2019-03-20T01:47:55.578Z,5.83
2019-03-20T01:50:24.000Z,5.70
2019-03-20T01:52:52.348Z,6.00
2019-03-20T01:55:20.641Z,6.20
2019-03-20T01:57:49.006Z,6.10
2019-03-20T02:00:17.534Z,6.12
2019-03-20T02:02:45.925Z,6.33
2019-03-20T02:05:14.546Z,6.12
2019-03-20T02:07:42.951Z,5.50
2019-03-20T02:10:15.705Z,5.83
2019-03-20T02:12:44.165Z,5.92
2019-03-20T02:15:17.293Z,5.80
2019-03-20T02:17:45.601Z,6.40
2019-03-20T02:20:16.029Z,6.50
2019-03-20T02:22:44.390Z,5.90
2019-03-20T02:25:13.481Z,4.65
2019-03-20T02:27:41.878Z,4.33
2019-03-20T02:30:18.236Z,3.42
2019-03-20T02:32:46.601Z,4.62
2019-03-20T02:35:14.983Z,3.85
2019-03-20T02:37:43.457Z,4.15
2019-03-20T02:40:13.989Z,4.25
2019-03-20T02:42:42.490Z,4.00
2019-03-20T02:45:13.313Z,4.30
2019-03-20T02:47:41.719Z,4.00
2019-03-20T02:50:10.926Z,3.92
2019-03-20T02:52:39.376Z,4.30
2019-03-20T02:55:10.987Z,3.58
2019-03-20T02:57:39.396Z,3.25
2019-03-20T03:00:11.228Z,3.52
2019-03-20T03:02:39.574Z,3.62
2019-03-20T03:05:08.859Z,3.75
2019-03-20T03:07:37.365Z,3.15
2019-03-20T03:10:08.820Z,3.30
2019-03-20T03:12:37.152Z,3.50
2019-03-20T03:15:07.319Z,4.20
2019-03-20T03:17:35.707Z,3.10
2019-03-20T03:20:06.688Z,2.98
2019-03-20T03:22:35.050Z,3.40
2019-03-20T03:25:04.413Z,3.60
2019-03-20T03:27:32.712Z,3.22
2019-03-20T03:30:01.127Z,3.80
2019-03-20T03:32:29.565Z,3.75
2019-03-20T03:34:57.918Z,3.70
2019-03-20T03:37:26.310Z,3.50
2019-03-20T03:39:54.766Z,3.45
2019-03-20T03:42:23.125Z,3.40
2019-03-20T03:44:51.496Z,3.20
2019-03-20T03:47:20.024Z,3.27
2019-03-20T03:49:48.371Z,3.45
2019-03-20T03:52:16.774Z,3.22
2019-03-20T03:54:45.174Z,3.12
2019-03-20T03:57:13.587Z,3.20
2019-03-20T03:59:41.946Z,3.40
2019-03-20T04:02:10.362Z,3.02
2019-03-20T04:04:38.729Z,3.58
2019-03-20T04:07:07.105Z,3.50
2019-03-20T04:09:35.586Z,3.50
2019-03-20T04:12:03.962Z,3.52
2019-03-20T04:14:32.312Z,3.42
2019-03-20T04:17:00.749Z,2.87
2019-03-20T04:19:29.132Z,3.08
2019-03-20T04:21:57.583Z,3.45
2019-03-20T04:24:25.934Z,3.33
2019-03-20T04:26:54.326Z,3.17
2019-03-20T04:29:22.761Z,2.90
2019-03-20T04:31:51.134Z,3.20
2019-03-20T04:34:19.563Z,2.77
2019-03-20T04:36:48.353Z,3.25
2019-03-20T04:39:16.753Z,2.90
2019-03-20T04:41:45.151Z,3.35
2019-03-20T04:44:13.674Z,3.15
2019-03-20T04:46:41.968Z,3.00
2019-03-20T04:49:10.457Z,3.22
2019-03-20T04:51:38.870Z,3.02
2019-03-20T04:54:07.208Z,3.05
2019-03-20T04:56:35.541Z,3.25
2019-03-20T04:59:03.930Z,3.10
2019-03-20T05:01:32.404Z,3.30
2019-03-20T05:04:00.780Z,3.42
2019-03-20T05:06:29.119Z,2.95
2019-03-20T05:08:58.007Z,3.20
2019-03-20T05:11:26.412Z,3.20
2019-03-20T05:13:54.813Z,2.90
2019-03-20T05:16:23.234Z,3.55
2019-03-20T05:18:51.632Z,3.05
2019-03-20T05:21:19.976Z,3.00
2019-03-20T05:23:48.389Z,3.27
2019-03-20T05:26:16.741Z,3.05
2019-03-20T05:28:45.025Z,3.30
2019-03-20T05:31:13.426Z,3.60
2019-03-20T05:33:41.805Z,3.10
2019-03-20T05:36:10.161Z,3.20
2019-03-20T05:38:38.545Z,2.98
2019-03-20T05:41:06.980Z,3.15
2019-03-20T05:43:35.362Z,3.33
2019-03-20T05:46:03.813Z,3.30
2019-03-20T05:48:32.111Z,3.33
2019-03-20T05:51:00.645Z,3.75
2019-03-20T05:53:29.102Z,3.42
2019-03-20T05:55:57.460Z,3.30
2019-03-20T05:58:25.847Z,2.87
2019-03-20T06:00:54.314Z,3.20
2019-03-20T06:03:22.661Z,3.47
2019-03-20T06:05:51.120Z,3.50
2019-03-20T06:08:19.545Z,4.03
2019-03-20T06:10:47.969Z,4.10
2019-03-20T06:13:16.299Z,4.00
2019-03-20T06:15:44.714Z,4.00
2019-03-20T06:18:13.071Z,4.00
2019-03-20T06:20:41.518Z,4.08
2019-03-20T06:23:11.228Z,4.15
2019-03-20T06:25:39.822Z,3.45
2019-03-20T06:28:08.287Z,3.75
2019-03-20T06:30:36.642Z,3.85
2019-03-20T06:33:04.948Z,4.03
2019-03-20T06:35:33.377Z,4.00
2019-03-20T06:38:01.802Z,4.05
2019-03-20T06:40:30.127Z,3.80
2019-03-20T06:42:58.790Z,3.60
2019-03-20T06:45:27.163Z,3.80
2019-03-20T06:47:55.468Z,3.85
2019-03-20T06:50:24.169Z,3.50
2019-03-20T06:52:52.493Z,3.60
2019-03-20T06:55:20.834Z,3.55
2019-03-20T06:57:49.246Z,3.75
2019-03-20T07:00:36.980Z,4.30
2019-03-20T07:03:26.771Z,4.40
2019-03-20T07:06:07.458Z,4.10
2019-03-20T07:08:42.450Z,4.42
2019-03-20T07:11:11.575Z,4.35
2019-03-20T07:13:39.970Z,3.95
2019-03-20T07:16:08.365Z,4.72
2019-03-20T07:18:36.754Z,4.75
2019-03-20T07:21:05.237Z,4.45
2019-03-20T07:23:33.621Z,4.90
2019-03-20T07:26:02.105Z,3.60
2019-03-20T07:28:30.606Z,5.22
2019-03-20T07:30:59.012Z,4.92
2019-03-20T07:33:27.427Z,4.80
2019-03-20T07:35:55.977Z,4.75
2019-03-20T07:38:24.524Z,5.53
2019-03-20T07:40:52.906Z,5.20
2019-03-20T07:43:21.265Z,5.00
2019-03-20T07:45:49.624Z,5.58
2019-03-20T07:48:22.517Z,4.85
2019-03-20T07:50:48.033Z,4.90
2019-03-20T07:53:35.901Z,5.58
2019-03-20T07:56:04.299Z,5.45
2019-03-20T07:58:32.673Z,5.90
2019-03-20T08:01:01.109Z,6.00
2019-03-20T08:03:29.498Z,5.70
2019-03-20T08:05:57.855Z,5.95
2019-03-20T08:08:26.265Z,6.37
2019-03-20T08:10:54.841Z,6.05
2019-03-20T08:13:23.183Z,6.60
2019-03-20T08:15:51.665Z,5.53
2019-03-20T08:18:20.055Z,6.55
2019-03-20T08:20:48.451Z,6.60
2019-03-20T08:23:17.021Z,6.45
2019-03-20T08:25:45.366Z,5.90
2019-03-20T08:28:13.711Z,6.20
2019-03-20T08:30:42.210Z,6.37
2019-03-20T08:33:10.570Z,6.35
2019-03-20T08:35:38.975Z,6.92
2019-03-20T08:38:17.442Z,7.12
2019-03-20T08:40:37.433Z,6.10
2019-03-20T08:43:05.791Z,5.67
2019-03-20T08:45:34.255Z,6.50
2019-03-20T08:48:02.636Z,6.37
2019-03-20T08:50:31.040Z,6.67
2019-03-20T08:52:59.436Z,7.03
2019-03-20T08:55:27.761Z,5.70
2019-03-20T08:57:56.118Z,5.85
2019-03-20T09:00:25.276Z,6.47
2019-03-20T09:02:53.653Z,5.30
2019-03-20T09:05:22.022Z,6.08
2019-03-20T09:07:50.430Z,5.87
2019-03-20T09:10:20.420Z,5.60
2019-03-20T09:12:48.766Z,5.72
2019-03-20T09:15:18.324Z,5.65
2019-03-20T09:17:46.626Z,5.65
2019-03-20T09:20:21.182Z,6.00
2019-03-20T09:22:49.637Z,5.85
2019-03-20T09:25:19.989Z,5.15
2019-03-20T09:27:48.320Z,6.10
2019-03-20T09:30:21.182Z,6.20
2019-03-20T09:32:49.501Z,5.87
2019-03-20T09:35:17.973Z,6.17
2019-03-20T09:37:51.713Z,6.30
2019-03-20T09:40:23.814Z,5.62
2019-03-20T09:42:53.578Z,5.90
2019-03-20T09:45:22.613Z,6.15
2019-03-20T09:47:51.024Z,5.55
2019-03-20T09:50:26.769Z,5.80
2019-03-20T09:52:55.131Z,5.00
2019-03-20T09:55:23.518Z,5.72
2019-03-20T09:57:51.949Z,5.90
2019-03-20T10:00:24.800Z,6.92
2019-03-20T10:02:53.134Z,5.83
2019-03-20T10:05:21.620Z,5.50
2019-03-20T10:07:49.968Z,5.70
2019-03-20T10:10:23.631Z,6.00
2019-03-20T10:12:52.143Z,5.92
2019-03-20T10:15:25.783Z,5.58
2019-03-20T10:17:54.113Z,6.60
2019-03-20T10:20:22.869Z,5.20
2019-03-20T10:22:51.302Z,5.87
2019-03-20T10:25:19.713Z,5.15
2019-03-20T10:27:48.153Z,5.25
2019-03-20T10:30:18.486Z,5.45
2019-03-20T10:32:46.948Z,4.92
2019-03-20T10:35:15.366Z,4.70
2019-03-20T10:37:43.733Z,4.72
2019-03-20T10:40:22.819Z,4.90
2019-03-20T10:42:51.252Z,4.97
2019-03-20T10:45:20.028Z,5.30
2019-03-20T10:47:48.989Z,4.90
2019-03-20T10:50:24.923Z,5.00
2019-03-20T10:52:53.311Z,4.55
2019-03-20T10:55:21.764Z,5.53
2019-03-20T10:57:50.267Z,5.22
2019-03-20T11:00:22.154Z,5.42
2019-03-20T11:02:50.955Z,4.90
2019-03-20T11:05:19.477Z,5.05
2019-03-20T11:07:47.918Z,5.03
2019-03-20T11:10:24.980Z,4.78
2019-03-20T11:12:53.578Z,5.03
2019-03-20T11:15:22.668Z,5.28
2019-03-20T11:17:51.057Z,4.50
2019-03-20T11:20:21.660Z,5.35
2019-03-20T11:22:50.141Z,5.25
2019-03-20T11:25:28.651Z,5.42
2019-03-20T11:27:57.008Z,5.45
2019-03-20T11:30:26.243Z,5.58
2019-03-20T11:32:54.842Z,5.03
2019-03-20T11:35:23.375Z,5.15
2019-03-20T11:37:52.161Z,4.87
2019-03-20T11:40:38.465Z,5.00
2019-03-20T11:43:06.781Z,5.10
2019-03-20T11:45:35.310Z,4.40
2019-03-20T11:48:05.234Z,4.78
2019-03-20T11:50:44.164Z,4.75
2019-03-20T11:53:12.788Z,4.28
2019-03-20T11:55:41.173Z,4.30
2019-03-20T11:58:09.636Z,4.60
2019-03-20T12:00:38.002Z,5.15
2019-03-20T12:03:06.389Z,4.70
2019-03-20T12:05:34.809Z,4.33
2019-03-20T12:08:03.314Z,4.78
2019-03-20T12:10:32.562Z,4.58
2019-03-20T12:13:00.994Z,5.50
2019-03-20T12:15:29.361Z,4.35
2019-03-20T12:17:58.174Z,4.08
2019-03-20T12:20:26.585Z,3.77
2019-03-20T12:22:55.337Z,3.92
2019-03-20T12:25:26.680Z,4.20
2019-03-20T12:27:55.054Z,4.65
2019-03-20T12:30:33.401Z,3.90
2019-03-20T12:33:01.849Z,4.40
2019-03-20T12:35:44.348Z,3.70
2019-03-20T12:38:15.308Z,3.70
2019-03-20T12:40:42.797Z,3.40
2019-03-20T12:43:11.236Z,4.12
2019-03-20T12:45:41.123Z,3.70
2019-03-20T12:48:11.024Z,4.05
2019-03-20T12:50:39.456Z,3.80
2019-03-20T12:53:10.152Z,3.45
2019-03-20T12:55:38.677Z,3.90
2019-03-20T12:58:07.199Z,3.58
2019-03-20T13:00:35.914Z,3.27
2019-03-20T13:03:04.434Z,3.77
2019-03-20T13:05:32.845Z,3.58
2019-03-20T13:08:05.772Z,3.30
2019-03-20T13:10:31.296Z,3.75
2019-03-20T13:12:59.988Z,4.00
2019-03-20T13:15:28.918Z,3.52
2019-03-20T13:17:57.412Z,4.25
2019-03-20T13:20:26.523Z,4.85
2019-03-20T13:23:13.193Z,4.62
2019-03-20T13:25:41.885Z,4.00
2019-03-20T13:28:10.334Z,3.83
2019-03-20T13:30:44.789Z,4.08
2019-03-20T13:33:13.410Z,4.05
2019-03-20T13:35:41.700Z,4.03
2019-03-20T13:38:10.358Z,3.55
2019-03-20T13:40:38.729Z,4.08
2019-03-20T13:43:07.317Z,4.03
2019-03-20T13:45:35.909Z,4.22
2019-03-20T13:48:04.490Z,3.85
2019-03-20T13:50:33.270Z,3.52
2019-03-20T13:53:11.783Z,4.08
2019-03-20T13:55:42.044Z,4.08
2019-03-20T13:58:10.788Z,3.40
2019-03-20T14:00:39.125Z,4.03
2019-03-20T14:03:07.964Z,3.95
2019-03-20T14:05:36.541Z,3.60
2019-03-20T14:08:05.015Z,3.92
2019-03-20T14:10:33.386Z,4.17
2019-03-20T14:13:01.947Z,3.92
2019-03-20T14:15:30.451Z,3.60
2019-03-20T14:17:58.939Z,3.77
2019-03-20T14:20:30.817Z,3.67
2019-03-20T14:22:59.121Z,3.00
2019-03-20T14:25:27.601Z,3.80
2019-03-20T14:27:56.149Z,3.75
2019-03-20T14:30:28.853Z,4.15
2019-03-20T14:32:57.357Z,3.80
2019-03-20T14:35:25.964Z,3.77
2019-03-20T14:37:54.558Z,4.05
2019-03-20T14:40:35.285Z,3.77
2019-03-20T14:42:56.648Z,3.70
2019-03-20T14:45:25.223Z,4.40
2019-03-20T14:47:53.806Z,3.80
2019-03-20T14:50:26.673Z,3.87
2019-03-20T14:52:55.039Z,4.40
2019-03-20T14:55:23.433Z,3.35
2019-03-20T14:57:52.106Z,3.85
2019-03-20T15:00:30.360Z,3.92
2019-03-20T15:02:58.778Z,3.90
2019-03-20T15:05:27.118Z,3.37
2019-03-20T15:07:55.646Z,4.08
2019-03-20T15:10:27.886Z,4.15
2019-03-20T15:12:56.558Z,3.60
2019-03-20T15:15:31.205Z,3.80
2019-03-20T15:17:59.604Z,3.90
2019-03-20T15:20:28.101Z,3.70
2019-03-20T15:22:56.462Z,3.77
2019-03-20T15:25:24.935Z,4.22
2019-03-20T15:27:53.322Z,3.85
2019-03-20T15:30:23.066Z,3.98
2019-03-20T15:32:51.466Z,3.27
2019-03-20T15:35:19.848Z,3.10
2019-03-20T15:37:48.181Z,4.28
2019-03-20T15:40:18.779Z,3.83
2019-03-20T15:42:50.232Z,4.00
2019-03-20T15:45:19.339Z,3.70
2019-03-20T15:47:47.663Z,3.92
2019-03-20T15:50:21.306Z,3.35
2019-03-20T15:52:49.891Z,4.20
2019-03-20T15:55:24.333Z,3.92
2019-03-20T15:57:52.778Z,3.87
2019-03-20T16:00:22.488Z,3.92
2019-03-20T16:02:59.680Z,3.50
2019-03-20T16:05:28.127Z,3.80
2019-03-20T16:07:56.499Z,4.33
2019-03-20T16:10:24.930Z,3.92
2019-03-20T16:12:53.400Z,4.28
2019-03-20T16:15:22.905Z,3.92
2019-03-20T16:17:51.289Z,3.58
2019-03-20T16:20:20.068Z,3.70
2019-03-20T16:22:48.561Z,4.15
2019-03-20T16:25:21.429Z,4.05
2019-03-20T16:27:49.979Z,3.87
2019-03-20T16:30:21.166Z,4.20
2019-03-20T16:32:49.650Z,4.28
2019-03-20T16:35:18.163Z,3.80
2019-03-20T16:37:46.640Z,3.83
2019-03-20T16:40:23.616Z,3.77
2019-03-20T16:42:51.978Z,4.42
2019-03-20T16:45:22.589Z,4.25
2019-03-20T16:47:51.033Z,3.92
2019-03-20T16:50:19.650Z,4.20
2019-03-20T16:52:48.028Z,4.08
2019-03-20T16:55:16.783Z,4.30
2019-03-20T16:57:45.187Z,4.20
2019-03-20T17:00:24.960Z,3.72
2019-03-20T17:02:53.410Z,4.20
2019-03-20T17:05:23.130Z,3.92
2019-03-20T17:07:51.556Z,4.10
2019-03-20T17:10:32.030Z,4.10
2019-03-20T17:13:01.338Z,4.65
2019-03-20T17:15:32.884Z,4.78
2019-03-20T17:18:01.237Z,4.70
2019-03-20T17:20:29.890Z,4.50
2019-03-20T17:22:58.192Z,5.22
2019-03-20T17:25:26.663Z,5.28
2019-03-20T17:27:55.070Z,5.10
2019-03-20T17:30:32.296Z,5.30
2019-03-20T17:33:00.793Z,5.28
2019-03-20T17:35:29.157Z,4.95
2019-03-20T17:37:57.608Z,4.90
2019-03-20T17:40:27.136Z,4.90
2019-03-20T17:42:55.602Z,4.78
2019-03-20T17:45:25.359Z,4.72
2019-03-20T17:47:53.647Z,4.17
2019-03-20T17:50:32.524Z,4.97
2019-03-20T17:53:01.205Z,5.17
2019-03-20T17:55:29.704Z,4.40
2019-03-20T17:57:58.184Z,4.87
2019-03-20T18:00:44.135Z,4.45
2019-03-20T18:03:12.737Z,4.30
2019-03-20T18:05:41.152Z,4.20
2019-03-20T18:08:09.902Z,4.62
2019-03-20T18:10:38.285Z,4.80
2019-03-20T18:13:07.485Z,4.75
2019-03-20T18:15:35.894Z,4.50
2019-03-20T18:18:04.892Z,4.25
2019-03-20T18:20:33.296Z,4.47
2019-03-20T18:23:01.616Z,4.33
2019-03-20T18:25:30.007Z,4.95
2019-03-20T18:27:58.429Z,3.75
2019-03-20T18:30:28.402Z,4.45
2019-03-20T18:32:56.760Z,4.50
2019-03-20T18:35:26.265Z,4.30
2019-03-20T18:37:54.828Z,4.72
2019-03-20T18:40:24.620Z,3.85
2019-03-20T18:42:53.200Z,4.12
2019-03-20T18:45:25.642Z,4.47
2019-03-20T18:47:53.981Z,4.72
2019-03-20T18:50:25.134Z,4.45
2019-03-20T18:52:53.548Z,4.20
2019-03-20T18:55:21.957Z,4.40
2019-03-20T18:57:50.433Z,4.00
2019-03-20T19:00:24.393Z,4.70
2019-03-20T19:02:54.709Z,4.67
2019-03-20T19:05:39.280Z,4.87
2019-03-20T19:08:07.729Z,4.70
2019-03-20T19:10:36.210Z,4.90
2019-03-20T19:13:04.570Z,5.75
2019-03-20T19:15:33.063Z,5.78
2019-03-20T19:18:01.422Z,5.00
2019-03-20T19:20:29.891Z,4.30
2019-03-20T19:22:58.781Z,4.70
2019-03-20T19:25:27.166Z,4.40
2019-03-20T19:27:55.557Z,4.50
2019-03-20T19:30:25.481Z,4.12
2019-03-20T19:32:53.860Z,4.03
2019-03-20T19:35:22.284Z,4.37
2019-03-20T19:37:50.784Z,3.70
2019-03-20T19:40:20.349Z,3.95
2019-03-20T19:42:48.845Z,4.22
2019-03-20T19:45:20.238Z,3.70
2019-03-20T19:47:48.658Z,4.22
2019-03-20T19:50:21.243Z,3.77
2019-03-20T19:52:49.656Z,3.85
2019-03-20T19:55:18.596Z,4.15
2019-03-20T19:57:47.120Z,4.30
2019-03-20T20:00:26.694Z,4.50
2019-03-20T20:02:55.095Z,3.98
2019-03-20T20:05:23.501Z,4.58
2019-03-20T20:07:51.900Z,4.85
2019-03-20T20:10:20.663Z,4.80
2019-03-20T20:12:49.094Z,4.70
2019-03-20T20:15:24.967Z,4.60
2019-03-20T20:17:53.591Z,5.17
2019-03-20T20:20:24.324Z,5.15
2019-03-20T20:22:52.825Z,4.70
2019-03-20T20:25:21.236Z,5.20
2019-03-20T20:27:49.639Z,4.97
2019-03-20T20:30:19.022Z,5.17
2019-03-20T20:32:47.583Z,5.05
2019-03-20T20:35:17.152Z,4.72
2019-03-20T20:37:46.392Z,4.55
2019-03-20T20:40:23.070Z,4.42
2019-03-20T20:45:38.689Z,4.47
2019-03-20T20:48:07.049Z,4.80
2019-03-20T20:50:35.500Z,4.35
2019-03-20T20:53:03.897Z,4.30
2019-03-20T20:55:32.290Z,4.80
2019-03-20T20:58:00.971Z,4.85
2019-03-20T21:00:29.578Z,4.53
2019-03-20T21:02:58.227Z,5.42
2019-03-20T21:05:26.854Z,5.42
2019-03-20T21:07:55.497Z,5.40
2019-03-20T21:10:27.068Z,6.08
2019-03-20T21:12:57.337Z,5.30
2019-03-20T21:15:40.306Z,5.35
2019-03-20T21:18:34.883Z,5.65
2019-03-20T21:21:03.491Z,5.70
2019-03-20T21:23:41.471Z,5.10
2019-03-20T21:26:16.052Z,5.62
2019-03-20T21:29:10.632Z,5.28
2019-03-20T21:31:58.933Z,5.50
2019-03-20T21:34:51.123Z,5.22
2019-03-20T21:37:37.834Z,5.10
2019-03-20T21:40:10.513Z,5.10
2019-03-20T21:43:10.221Z,4.80
2019-03-20T21:45:56.818Z,5.03
2019-03-20T21:48:25.319Z,5.00
2019-03-20T21:51:00.005Z,4.92
2019-03-20T21:53:49.633Z,4.90
2019-03-20T21:56:37.674Z,5.00
2019-03-20T21:59:36.782Z,5.17
2019-03-20T22:02:29.364Z,4.70
2019-03-20T22:04:57.658Z,5.60
2019-03-20T22:07:26.073Z,5.20
2019-03-20T22:10:14.274Z,5.37
2019-03-20T22:12:51.580Z,4.85
2019-03-20T22:15:35.524Z,5.40
2019-03-20T22:18:18.925Z,5.30
2019-03-20T22:20:56.385Z,5.53
2019-03-20T22:23:30.919Z,5.62
2019-03-20T22:26:28.396Z,5.87
2019-03-20T22:29:16.410Z,6.40
2019-03-20T22:31:47.997Z,5.97
2019-03-20T22:34:36.178Z,6.30
2019-03-20T22:37:04.704Z,5.97
2019-03-20T22:39:58.930Z,5.75
2019-03-20T22:42:39.466Z,5.17
2019-03-20T22:45:16.873Z,5.83
2019-03-20T22:48:05.070Z,5.17
2019-03-20T22:50:36.680Z,6.28
2019-03-20T22:53:14.130Z,6.12
2019-03-20T22:56:08.447Z,5.55
2019-03-20T22:58:42.151Z,5.28
2019-03-20T23:01:19.519Z,5.90
2019-03-20T23:04:00.165Z,5.45
2019-03-20T23:06:28.969Z,6.00
2019-03-20T23:08:57.332Z,5.70
2019-03-20T23:11:25.743Z,5.60
2019-03-20T23:13:54.158Z,6.30
2019-03-20T23:16:22.489Z,5.35
2019-03-20T23:18:50.960Z,6.75
2019-03-20T23:21:19.368Z,6.65
2019-03-20T23:23:47.782Z,6.83
2019-03-20T23:26:16.233Z,7.35
2019-03-20T23:28:44.590Z,6.75
2019-03-20T23:31:13.058Z,6.33
2019-03-20T23:33:41.480Z,6.67
2019-03-20T23:36:09.832Z,6.60
2019-03-20T23:38:38.209Z,7.05
2019-03-20T23:41:07.058Z,6.40
2019-03-20T23:43:35.545Z,5.83
2019-03-20T23:46:05.292Z,6.45
2019-03-20T23:48:48.884Z,6.92
2019-03-20T23:51:20.177Z,6.12
2019-03-20T23:53:50.675Z,6.35
2019-03-20T23:56:19.012Z,6.70
2019-03-20T23:58:47.404Z,6.75
